Time;durP1;ratioP1;P1;durP2;ratioP2;P2;SDS_P1;SDS_P2;PMS_P1;PMS_P2;Temp;Humidity;BMP_temperature;BMP_pressure;BME280_temperature;BME280_humidity;BME280_pressure;Samples;Min_cycle;Max_cycle;Signal;HPM_P1;HPM_P2
2023/10/05 00:01:18;;;;;;;8.43;3.57;;;;;;;15.77;100.00;97143.84;5102103;28;20312;-76
2023/10/05 00:03:50;;;;;;;10.63;3.90;;;;;;;15.54;100.00;97146.34;5116456;27;20511;-76
2023/10/05 00:06:25;;;;;;;7.57;3.33;;;;;;;15.34;100.00;97139.75;5085902;28;20397;-76
2023/10/05 00:08:53;;;;;;;8.80;3.37;;;;;;;15.06;100.00;97137.44;5082851;28;20420;-76
2023/10/05 00:11:29;;;;;;;11.77;3.83;;;;;;;14.68;100.00;97135.41;5087792;27;20100;-76
2023/10/05 00:13:59;;;;;;;10.93;3.77;;;;;;;14.69;100.00;97129.97;5082276;28;20028;-76
2023/10/05 00:16:38;;;;;;;11.07;3.70;;;;;;;14.76;100.00;97130.97;5103022;28;20028;-76
2023/10/05 00:19:11;;;;;;;8.67;3.17;;;;;;;15.42;100.00;97134.41;5100356;27;20407;-76
2023/10/05 00:21:39;;;;;;;;;;;;;;;15.27;100.00;97131.63;5085596;27;20030;-76
2023/10/05 00:24:08;;;;;;;7.40;3.40;;;;;;;15.15;100.00;97126.81;5102873;28;19911;-76
2023/10/05 00:26:37;;;;;;;9.77;3.43;;;;;;;15.29;100.00;97142.06;5092069;28;20478;-76
2023/10/05 00:29:23;;;;;;;5.73;2.67;;;;;;;15.12;100.00;97137.75;5082537;28;20081;-76
2023/10/05 00:31:49;;;;;;;7.17;3.40;;;;;;;15.27;100.00;97139.59;5099517;28;20032;-76
2023/10/05 00:34:24;;;;;;;6.27;2.43;;;;;;;15.46;100.00;97138.41;5090657;28;20085;-76
2023/10/05 00:36:51;;;;;;;10.07;3.07;;;;;;;15.47;100.00;97132.13;5103090;28;20027;-76
2023/10/05 00:39:19;;;;;;;7.50;3.03;;;;;;;15.46;100.00;97132.25;5085122;28;20031;-76
2023/10/05 00:41:49;;;;;;;7.80;2.70;;;;;;;15.43;100.00;97122.03;5106309;28;20034;-76
2023/10/05 00:44:15;;;;;;;5.63;2.67;;;;;;;15.38;100.00;97137.59;5086866;28;20580;-76
2023/10/05 00:46:48;;;;;;;5.77;2.73;;;;;;;15.23;100.00;97135.63;5089911;28;20078;-76
2023/10/05 00:49:19;;;;;;;6.55;2.63;;;;;;;15.35;100.00;97138.75;5082497;28;20118;-76
2023/10/05 00:51:58;;;;;;;7.67;2.73;;;;;;;15.32;100.00;97137.28;5088938;28;20636;-76
2023/10/05 00:54:32;;;;;;;7.23;3.10;;;;;;;15.53;100.00;97130.63;5085548;28;20024;-76
2023/10/05 00:57:02;;;;;;;7.20;2.77;;;;;;;15.33;100.00;97123.03;5077653;28;20046;-76
2023/10/05 00:59:31;;;;;;;6.00;2.60;;;;;;;15.20;100.00;97122.69;5081259;28;20026;-76
2023/10/05 01:04:53;;;;;;;5.60;2.43;;;;;;;15.14;100.00;97117.25;5103822;28;20027;-76
2023/10/05 01:12:43;;;;;;;7.70;3.03;;;;;;;15.04;100.00;97109.44;5094983;28;20504;-76
2023/10/05 01:15:15;;;;;;;8.57;3.37;;;;;;;14.79;100.00;97106.81;5099668;28;20054;-76
2023/10/05 01:17:41;;;;;;;7.60;3.80;;;;;;;14.95;100.00;97108.59;5096746;28;20026;-76
2023/10/05 01:22:44;;;;;;;9.07;3.90;;;;;;;15.37;100.00;97106.78;5099085;28;20031;-76
2023/10/05 01:25:13;;;;;;;8.03;3.43;;;;;;;15.23;100.00;97109.13;5087835;28;20088;-76
2023/10/05 01:27:45;;;;;;;7.93;3.77;;;;;;;15.47;100.00;97108.25;5098632;28;20039;-76
2023/10/05 01:30:14;;;;;;;9.77;3.90;;;;;;;15.63;100.00;97118.00;5092313;28;20092;-76
2023/10/05 01:32:41;;;;;;;9.00;3.43;;;;;;;15.71;100.00;97110.06;5096972;28;20036;-76
2023/10/05 01:35:12;;;;;;;8.37;3.70;;;;;;;15.59;100.00;97106.06;5085666;28;20032;-76
2023/10/05 01:37:44;;;;;;;10.13;3.20;;;;;;;15.61;100.00;97098.78;5102656;28;20031;-76
2023/10/05 01:42:47;;;;;;;9.17;3.53;;;;;;;15.18;100.00;97102.66;5100716;28;20023;-76
2023/10/05 01:45:17;;;;;;;10.60;3.87;;;;;;;15.33;100.00;97106.31;5103910;28;20114;-76
2023/10/05 01:47:46;;;;;;;9.67;4.80;;;;;;;15.25;100.00;97087.75;5102666;28;20072;-76
2023/10/05 01:50:18;;;;;;;11.77;4.00;;;;;;;15.37;100.00;97085.59;5083775;28;20055;-76
2023/10/05 01:52:46;;;;;;;8.30;3.77;;;;;;;15.17;100.00;97090.41;5098341;28;20489;-76
2023/10/05 01:55:30;;;;;;;8.73;3.90;;;;;;;15.21;100.00;97078.47;5088686;28;20055;-76
2023/10/05 01:57:57;;;;;;;9.13;4.10;;;;;;;15.23;100.00;97082.63;5082922;28;20416;-76
2023/10/05 02:00:23;;;;;;;7.43;3.43;;;;;;;15.48;100.00;97079.91;5084409;28;20497;-76
2023/10/05 02:02:49;;;;;;;9.53;4.00;;;;;;;15.52;100.00;97073.28;5082456;28;20088;-76
2023/10/05 02:05:19;;;;;;;10.27;3.50;;;;;;;15.70;100.00;97081.06;5083462;28;20071;-76
2023/10/05 02:07:46;;;;;;;9.13;3.73;;;;;;;15.65;100.00;97081.53;5084975;28;20020;-76
2023/10/05 02:10:13;;;;;;;7.60;3.30;;;;;;;15.67;100.00;97086.72;5092190;28;20023;-76
2023/10/05 02:12:39;;;;;;;8.60;3.03;;;;;;;15.68;100.00;97089.19;5093840;28;20172;-76
2023/10/05 02:15:16;;;;;;;8.90;2.83;;;;;;;15.64;100.00;97082.53;5091780;28;20032;-76
2023/10/05 02:17:47;;;;;;;7.17;3.77;;;;;;;15.55;100.00;97083.53;5096472;28;20286;-76
2023/10/05 02:21:05;;;;;;;9.27;2.80;;;;;;;15.61;100.00;97072.25;5109098;28;20028;-76
2023/10/05 02:22:59;;;;;;;7.73;3.00;;;;;;;15.74;100.00;97077.88;5098089;28;20040;-78
2023/10/05 02:25:33;;;;;;;8.03;2.53;;;;;;;15.90;100.00;97078.84;5105969;28;20107;-75
2023/10/05 02:28:00;;;;;;;12.07;2.73;;;;;;;15.52;100.00;97083.88;5089822;27;20507;-76
2023/10/05 02:30:31;;;;;;;8.57;3.07;;;;;;;15.84;100.00;97098.91;5100128;27;20034;-76
2023/10/05 02:33:03;;;;;;;5.87;2.50;;;;;;;15.64;100.00;97085.19;5086025;28;20428;-76
2023/10/05 02:35:33;;;;;;;7.57;3.10;;;;;;;15.52;100.00;97083.88;5096349;27;20031;-76
2023/10/05 02:37:59;;;;;;;6.10;3.13;;;;;;;15.60;100.00;97075.09;5098332;28;20436;-76
2023/10/05 02:40:37;;;;;;;5.50;2.63;;;;;;;15.28;100.00;97085.59;5094363;28;20438;-76
2023/10/05 02:43:07;;;;;;;6.40;2.67;;;;;;;15.27;100.00;97081.28;5089167;28;20027;-76
2023/10/05 02:45:36;;;;;;;8.10;3.00;;;;;;;15.35;100.00;97069.84;5089393;28;20524;-76
2023/10/05 02:48:05;;;;;;;6.10;3.40;;;;;;;15.29;100.00;97057.25;5084918;28;20428;-76
2023/10/05 02:50:51;;;;;;;9.37;3.70;;;;;;;14.87;100.00;97060.13;5101250;27;20039;-76
2023/10/05 02:53:18;;;;;;;7.63;3.07;;;;;;;15.17;100.00;97062.09;5108236;28;20027;-76
2023/10/05 02:55:51;;;;;;;10.77;2.80;;;;;;;15.03;100.00;97057.47;5102729;28;20024;-76
2023/10/05 02:58:17;;;;;;;6.63;2.53;;;;;;;15.05;100.00;97060.75;5089463;28;20069;-76
2023/10/05 03:00:44;;;;;;;10.00;3.37;;;;;;;15.39;100.00;97057.91;5102661;28;20705;-76
2023/10/05 03:03:14;;;;;;;7.50;2.90;;;;;;;15.57;100.00;97068.31;5085500;28;20032;-76
2023/10/05 03:05:41;;;;;;;6.90;3.07;;;;;;;15.45;100.00;97072.31;5090576;28;20027;-76
2023/10/05 03:08:10;;;;;;;6.07;2.50;;;;;;;15.57;100.00;97071.78;5108131;28;20038;-76
2023/10/05 03:10:37;;;;;;;7.07;2.43;;;;;;;15.63;100.00;97070.28;5088455;28;20059;-76
2023/10/05 03:13:04;;;;;;;8.83;2.57;;;;;;;15.66;100.00;97069.97;5086762;28;20115;-76
2023/10/05 03:15:34;;;;;;;7.53;2.53;;;;;;;15.47;100.00;97072.97;5088579;28;20028;-76
2023/10/05 03:18:00;;;;;;;6.07;2.60;;;;;;;15.51;100.00;97061.03;5098793;28;20027;-76
2023/10/05 03:20:29;;;;;;;7.77;2.30;;;;;;;15.39;100.00;97055.28;5106926;28;20023;-76
2023/10/05 03:22:55;;;;;;;6.73;2.77;;;;;;;15.57;100.00;97055.06;5086362;28;20028;-76
2023/10/05 03:25:22;;;;;;;6.37;2.53;;;;;;;15.51;100.00;97056.53;5089758;28;20035;-76
2023/10/05 03:27:48;;;;;;;5.70;2.40;;;;;;;15.53;100.00;97069.66;5102299;28;20020;-76
2023/10/05 03:30:15;;;;;;;5.60;2.30;;;;;;;15.25;100.00;97071.84;5107666;28;20020;-76
2023/10/05 03:32:43;;;;;;;7.07;2.73;;;;;;;15.27;100.00;97068.03;5101000;27;20027;-76
2023/10/05 03:35:09;;;;;;;6.37;2.70;;;;;;;15.30;100.00;97065.06;5087708;28;20485;-76
2023/10/05 03:37:39;;;;;;;7.93;2.90;;;;;;;14.97;100.00;97069.56;5090506;28;20031;-76
2023/10/05 03:42:31;;;;;;;8.83;3.03;;;;;;;15.22;100.00;97067.69;5097809;28;20102;-76
2023/10/05 03:45:03;;;;;;;6.57;3.00;;;;;;;15.24;100.00;97070.19;5102721;28;20020;-76
2023/10/05 03:47:39;;;;;;;7.77;3.00;;;;;;;15.13;100.00;97070.56;5107503;27;20065;-76
2023/10/05 03:50:08;;;;;;;9.17;3.20;;;;;;;15.18;100.00;97076.97;5088306;28;20065;-76
2023/10/05 03:52:34;;;;;;;10.80;3.20;;;;;;;15.19;100.00;97078.66;5103557;28;20110;-76
2023/10/05 03:55:07;;;;;;;6.90;2.60;;;;;;;15.27;100.00;97080.47;5104521;28;20433;-76
2023/10/05 03:57:33;;;;;;;6.57;2.80;;;;;;;15.52;100.00;97083.88;5100928;28;20020;-76
2023/10/05 04:00:06;;;;;;;10.93;2.73;;;;;;;15.55;100.00;97080.88;5084490;28;20107;-76
2023/10/05 04:02:37;;;;;;;8.93;3.00;;;;;;;15.59;100.00;97078.72;5101596;28;20019;-76
2023/10/05 04:05:04;;;;;;;6.93;2.67;;;;;;;15.48;100.00;97079.91;5084752;28;20474;-76
2023/10/05 04:07:31;;;;;;;8.57;2.70;;;;;;;15.57;100.00;97081.56;5089540;28;20432;-75
2023/10/05 04:10:01;;;;;;;7.73;2.60;;;;;;;15.42;100.00;97075.28;5114409;28;20049;-76
2023/10/05 04:12:31;;;;;;;8.53;2.97;;;;;;;15.47;100.00;97079.09;5102769;28;20024;-77
2023/10/05 04:14:57;;;;;;;7.87;2.73;;;;;;;15.63;100.00;97083.53;5086294;28;20032;-76
2023/10/05 04:17:27;;;;;;;9.67;3.07;;;;;;;15.56;100.00;97082.56;5090932;28;20028;-76
2023/10/05 04:19:53;;;;;;;6.50;2.67;;;;;;;15.77;100.00;97072.25;5085688;28;20134;-76
2023/10/05 04:22:19;;;;;;;6.97;3.23;;;;;;;15.51;100.00;97071.63;5098957;28;20595;-77
2023/10/05 04:24:45;;;;;;;7.77;2.80;;;;;;;15.89;100.00;97074.50;5089767;28;20051;-76
2023/10/05 04:27:18;;;;;;;6.37;3.03;;;;;;;15.82;100.00;97079.69;5093415;28;20440;-76
2023/10/05 04:29:44;;;;;;;7.45;3.75;;;;;;;15.70;100.00;97068.63;5100754;28;20034;-76
2023/10/05 04:32:13;;;;;;;9.73;3.70;;;;;;;15.67;100.00;97079.56;5096866;28;20040;-76
2023/10/05 04:34:39;;;;;;;11.03;3.33;;;;;;;15.39;100.00;97079.13;5108991;28;20035;-76
2023/10/05 04:37:05;;;;;;;7.33;3.43;;;;;;;15.39;100.00;97076.47;5104599;28;20045;-76
2023/10/05 04:39:32;;;;;;;7.87;3.03;;;;;;;15.71;100.00;97080.06;5102446;28;20019;-76
2023/10/05 04:42:10;;;;;;;10.27;3.73;;;;;;;15.53;100.00;97080.25;5101929;28;20042;-79
2023/10/05 04:44:56;;;;;;;7.57;2.73;;;;;;;16.29;100.00;97075.31;5094196;28;20020;-76
2023/10/05 04:47:23;;;;;;;11.20;3.10;;;;;;;16.27;100.00;97081.66;5106175;28;20027;-77
2023/10/05 04:49:49;;;;;;;7.07;2.80;;;;;;;16.13;100.00;97077.09;5079328;28;20034;-77
2023/10/05 04:52:23;;;;;;;7.73;2.43;;;;;;;16.01;100.00;97073.97;5106910;28;20028;-76
2023/10/05 04:54:57;;;;;;;11.00;2.60;;;;;;;15.98;100.00;97081.44;5099380;28;20443;-76
2023/10/05 04:57:35;;;;;;;;;;;;;;;15.93;100.00;97083.81;5084743;28;20031;-76
2023/10/05 05:00:49;;;;;;;9.80;2.33;;;;;;;15.99;100.00;97077.78;5094844;28;20358;-76
2023/10/05 05:02:58;;;;;;;6.53;2.87;;;;;;;15.99;100.00;97080.44;5100454;28;20202;-76
2023/10/05 05:05:53;;;;;;;6.23;2.70;;;;;;;15.80;100.00;97076.38;5086166;28;20034;-76
2023/10/05 05:08:20;;;;;;;20.67;14.27;;;;;;;16.12;100.00;97069.28;5098480;28;20160;-75
2023/10/05 05:10:46;;;;;;;5.90;2.97;;;;;;;15.70;100.00;97079.25;5091384;28;20020;-77
2023/10/05 05:13:12;;;;;;;7.53;2.63;;;;;;;15.82;100.00;97068.25;5101008;28;20019;-77
2023/10/05 05:15:38;;;;;;;12.10;3.20;;;;;;;15.76;100.00;97075.91;5089075;28;20051;-77
2023/10/05 05:18:05;;;;;;;8.43;2.70;;;;;;;15.86;100.00;97081.00;5090613;28;20019;-76
2023/10/05 05:20:33;;;;;;;7.60;2.83;;;;;;;15.69;100.00;97074.94;5106968;28;20392;-76
2023/10/05 05:22:59;;;;;;;8.97;2.87;;;;;;;15.88;100.00;97080.84;5088722;28;20027;-76
2023/10/05 05:25:33;;;;;;;9.63;2.37;;;;;;;15.89;100.00;97085.13;5094899;28;20048;-76
2023/10/05 05:28:05;;;;;;;5.83;2.50;;;;;;;15.86;100.00;97083.66;5100132;28;20045;-76
2023/10/05 05:30:33;;;;;;;6.93;2.50;;;;;;;15.86;100.00;97085.47;5090404;28;20039;-76
2023/10/05 05:32:59;;;;;;;7.93;3.00;;;;;;;15.63;100.00;97088.84;5096577;28;20054;-76
2023/10/05 05:35:27;;;;;;;7.27;2.47;;;;;;;15.53;100.00;97088.22;5089258;28;20028;-76
2023/10/05 05:37:56;;;;;;;8.43;2.90;;;;;;;15.47;100.00;97091.53;5107521;28;20030;-76
2023/10/05 05:40:21;;;;;;;7.37;2.70;;;;;;;15.69;100.00;97095.31;5096323;28;20024;-76
2023/10/05 05:42:47;;;;;;;5.77;2.50;;;;;;;15.90;100.00;97089.44;5090527;28;20022;-76
2023/10/05 05:45:16;;;;;;;6.33;2.70;;;;;;;15.99;100.00;97086.56;5105200;28;20035;-76
2023/10/05 05:47:43;;;;;;;9.43;2.87;;;;;;;15.82;100.00;97089.47;5084166;28;20032;-77
2023/10/05 05:50:15;;;;;;;8.27;3.27;;;;;;;15.89;100.00;97093.91;5107924;28;20042;-76
2023/10/05 05:52:41;;;;;;;9.67;3.20;;;;;;;15.77;100.00;97088.16;5088345;28;20032;-76
2023/10/05 05:55:13;;;;;;;8.73;3.30;;;;;;;15.89;100.00;97085.13;5116711;28;20003;-76
2023/10/05 05:57:42;;;;;;;9.17;3.90;;;;;;;15.79;100.00;97087.97;5106874;28;20087;-77
2023/10/05 06:00:12;;;;;;;7.20;3.30;;;;;;;15.49;100.00;97093.03;5091038;28;20538;-77
2023/10/05 06:02:41;;;;;;;9.40;3.20;;;;;;;15.79;100.00;97099.44;5089156;28;20016;-76
2023/10/05 06:05:08;;;;;;;12.07;3.80;;;;;;;16.39;100.00;97089.22;5089086;28;20469;-76
2023/10/05 06:07:39;;;;;;;7.73;2.73;;;;;;;16.36;100.00;97089.56;5099714;28;20059;-77
2023/10/05 06:10:17;;;;;;;8.97;3.50;;;;;;;16.36;100.00;97086.91;5091776;28;20028;-76
2023/10/05 06:12:48;;;;;;;10.83;2.97;;;;;;;16.22;100.00;97083.16;5090580;28;20081;-76
2023/10/05 06:15:13;;;;;;;8.50;3.40;;;;;;;16.10;100.00;97082.72;5110147;28;20039;-77
2023/10/05 06:17:40;;;;;;;12.93;3.03;;;;;;;16.47;100.00;97078.56;5104505;28;20032;-76
2023/10/05 06:20:15;;;;;;;11.73;3.57;;;;;;;16.98;100.00;97086.84;5084204;28;20028;-76
2023/10/05 06:22:44;;;;;;;9.73;3.37;;;;;;;17.21;100.00;97070.88;5095986;28;20100;-76
2023/10/05 06:25:16;;;;;;;11.77;3.33;;;;;;;17.61;100.00;97059.00;5091137;28;20039;-76
2023/10/05 06:27:48;;;;;;;10.90;3.22;;;;;;;17.76;100.00;97060.81;5089288;28;20039;-76
2023/10/05 06:30:15;;;;;;;9.93;3.77;;;;;;;17.19;100.00;97075.53;5083629;28;20435;-77
2023/10/05 06:32:44;;;;;;;8.80;2.97;;;;;;;17.19;100.00;97062.25;5106948;28;20062;-76
2023/10/05 06:35:13;;;;;;;8.77;3.07;;;;;;;17.28;100.00;97070.97;5107857;28;20016;-77
2023/10/05 06:37:42;;;;;;;9.50;2.77;;;;;;;17.75;100.00;97078.63;5082462;28;20114;-77
2023/10/05 06:40:14;;;;;;;7.30;3.27;;;;;;;17.08;100.00;97078.63;5087360;28;20156;-76
2023/10/05 06:42:43;;;;;;;7.60;3.57;;;;;;;16.92;100.00;97071.63;5088692;28;20024;-76
2023/10/05 06:45:13;;;;;;;6.73;2.70;;;;;;;17.13;100.00;97078.91;5108394;28;20023;-77
2023/10/05 06:47:40;;;;;;;9.37;2.60;;;;;;;17.17;100.00;97074.91;5094084;28;20040;-76
2023/10/05 06:50:10;;;;;;;8.67;2.60;;;;;;;17.42;100.00;97071.00;5095808;28;20505;-76
2023/10/05 06:52:46;;;;;;;7.30;2.90;;;;;;;17.64;100.00;97082.56;5104111;28;20127;-76
2023/10/05 06:55:14;;;;;;;8.77;2.87;;;;;;;17.45;100.00;97085.75;5090816;28;20050;-76
2023/10/05 06:57:43;;;;;;;6.03;2.57;;;;;;;17.84;100.00;97079.38;5091977;28;21672;-77
2023/10/05 07:00:22;;;;;;;6.43;2.80;;;;;;;17.39;100.00;97089.97;5089223;28;20016;-77
2023/10/05 07:02:50;;;;;;;6.93;2.90;;;;;;;17.75;100.00;97099.09;5093881;28;20018;-77
2023/10/05 07:05:17;;;;;;;8.77;2.83;;;;;;;17.55;100.00;97104.94;5105943;28;20657;-76
2023/10/05 07:07:43;;;;;;;7.87;3.33;;;;;;;17.64;100.00;97113.69;5098002;28;20015;-76
2023/10/05 07:10:12;;;;;;;7.77;3.00;;;;;;;17.81;100.00;97125.81;5094121;28;20023;-76
2023/10/05 07:12:39;;;;;;;7.30;3.50;;;;;;;18.19;100.00;97124.91;5106655;28;20606;-76
2023/10/05 07:15:06;;;;;;;4.93;2.60;;;;;;;18.25;100.00;97122.31;5092500;28;20142;-77
2023/10/05 07:17:32;;;;;;;8.20;3.43;;;;;;;18.35;100.00;97125.50;5087551;28;20033;-76
2023/10/05 07:20:01;;;;;;;7.83;3.57;;;;;;;18.53;100.00;97125.09;5086529;28;20389;-76
2023/10/05 07:22:27;;;;;;;10.33;5.20;;;;;;;18.38;100.00;97125.16;5088375;28;20152;-77
2023/10/05 07:24:52;;;;;;;7.10;3.17;;;;;;;18.22;100.00;97124.53;5090112;28;20541;-77
2023/10/05 07:27:18;;;;;;;9.10;2.77;;;;;;;17.62;100.00;97142.28;5110651;28;20100;-77
2023/10/05 07:29:45;;;;;;;8.17;3.17;;;;;;;18.80;100.00;97134.25;5098721;28;20027;-76
2023/10/05 07:32:14;;;;;;;6.97;3.00;;;;;;;19.06;100.00;97141.69;5092656;28;20024;-77
2023/10/05 07:34:43;;;;;;;7.83;2.97;;;;;;;20.28;95.14;97132.50;5091343;28;20027;-77
2023/10/05 07:37:12;;;;;;;6.20;2.80;;;;;;;21.15;88.41;97125.59;5093734;28;20061;-76
2023/10/05 07:39:41;;;;;;;6.73;3.13;;;;;;;20.57;90.01;97127.94;5093731;28;20027;-77
2023/10/05 07:42:08;;;;;;;6.80;3.07;;;;;;;20.47;91.23;97125.63;5105005;28;20051;-77
2023/10/05 07:44:36;;;;;;;7.73;2.80;;;;;;;20.71;88.24;97125.09;5115005;28;20107;-77
2023/10/05 07:47:02;;;;;;;8.27;2.60;;;;;;;20.49;92.57;97131.59;5091532;28;20039;-78
2023/10/05 07:49:28;;;;;;;7.57;2.70;;;;;;;20.89;82.89;97127.22;5094122;28;20917;-82
2023/10/05 07:51:53;;;;;;;7.63;3.03;;;;;;;22.76;74.30;97117.88;5093005;28;20027;-78
2023/10/05 07:54:20;;;;;;;6.70;2.60;;;;;;;23.29;66.31;97117.56;5096748;28;20023;-77
2023/10/05 07:56:45;;;;;;;7.40;2.57;;;;;;;22.39;71.98;97132.09;5101495;28;20016;-77
2023/10/05 07:59:13;;;;;;;6.23;2.30;;;;;;;21.06;82.33;97138.38;5089569;28;20031;-77
2023/10/05 08:01:40;;;;;;;7.30;2.83;;;;;;;20.75;89.05;97138.88;5109252;28;20062;-77
2023/10/05 08:04:05;;;;;;;4.77;2.23;;;;;;;21.77;80.96;97143.13;5093748;28;20100;-78
2023/10/05 08:06:33;;;;;;;5.33;2.30;;;;;;;21.69;80.97;97143.34;5106871;28;20113;-77
2023/10/05 08:08:58;;;;;;;7.07;3.17;;;;;;;21.52;84.44;97145.63;5102479;28;20069;-78
2023/10/05 08:11:24;;;;;;;6.65;2.40;;;;;;;21.93;80.55;97157.09;5089701;28;20028;-77
2023/10/05 08:13:50;;;;;;;8.90;2.78;;;;;;;22.02;82.56;97150.50;5091173;28;20039;-77
2023/10/05 08:16:15;;;;;;;6.30;2.95;;;;;;;22.54;73.24;97146.06;5094787;28;20050;-78
2023/10/05 08:18:42;;;;;;;8.90;2.40;;;;;;;22.88;73.55;97136.00;5082260;28;20026;-77
2023/10/05 08:21:08;;;;;;;5.97;2.22;;;;;;;23.48;66.97;97147.19;5094982;28;20128;-77
2023/10/05 08:23:33;;;;;;;8.38;2.63;;;;;;;23.29;65.58;97157.00;5085414;28;20474;-77
2023/10/05 08:25:59;;;;;;;7.90;2.97;;;;;;;23.51;62.87;97152.13;5093002;28;20075;-78
2023/10/05 08:28:25;;;;;;;5.80;2.30;;;;;;;23.08;67.93;97154.69;5097880;28;20032;-77
2023/10/05 08:31:07;;;;;;;6.97;2.70;;;;;;;22.89;66.97;97151.03;5088046;28;20076;-77
2023/10/05 08:33:37;;;;;;;8.38;2.63;;;;;;;22.74;70.40;97156.69;5091924;28;20074;-78
2023/10/05 08:36:06;;;;;;;6.32;2.40;;;;;;;23.37;68.74;97155.91;5092520;28;20024;-77
2023/10/05 08:38:35;;;;;;;6.65;2.55;;;;;;;23.14;65.97;97162.69;5092363;28;20366;-77
2023/10/05 08:41:07;;;;;;;7.65;2.92;;;;;;;24.48;60.01;97152.47;5086088;28;20015;-78
2023/10/05 08:43:39;;;;;;;6.60;3.05;;;;;;;23.73;64.36;97163.31;5092587;28;20055;-78
2023/10/05 08:46:11;;;;;;;5.68;2.47;;;;;;;24.38;60.36;97152.94;5092772;28;20024;-78
2023/10/05 08:48:37;;;;;;;6.85;2.80;;;;;;;23.90;64.67;97152.81;5108476;28;20023;-78
2023/10/05 08:51:14;;;;;;;7.47;2.75;;;;;;;24.96;58.82;97153.50;5091959;28;20030;-78
2023/10/05 08:53:54;;;;;;;7.47;2.65;;;;;;;25.52;55.12;97154.94;5089208;28;20043;-78
2023/10/05 08:56:22;;;;;;;6.43;2.65;;;;;;;23.87;60.92;97158.63;5087989;28;20051;-78
2023/10/05 08:58:49;;;;;;;9.07;3.47;;;;;;;25.20;57.60;97151.75;5091720;28;20022;-77
2023/10/05 09:01:22;;;;;;;7.53;2.95;;;;;;;25.02;57.90;97158.78;5095110;28;20024;-78
2023/10/05 09:03:53;;;;;;;7.57;3.20;;;;;;;24.44;62.72;97168.19;5091462;28;20026;-78
2023/10/05 09:06:26;;;;;;;8.10;3.45;;;;;;;24.91;57.14;97162.25;5093299;28;20031;-77
2023/10/05 09:08:53;;;;;;;7.85;4.25;;;;;;;24.74;61.27;97161.22;5091248;28;20023;-78
2023/10/05 09:11:35;;;;;;;7.60;3.17;;;;;;;24.26;65.04;97153.91;5100707;28;20028;-77
2023/10/05 09:14:20;;;;;;;8.40;3.03;;;;;;;25.20;58.76;97154.44;5085274;28;20075;-77
2023/10/05 09:16:47;;;;;;;8.95;3.65;;;;;;;25.85;55.27;97154.44;5091766;28;20019;-78
2023/10/05 09:19:33;;;;;;;9.38;3.75;;;;;;;24.52;60.16;97153.66;5092078;28;20102;-78
2023/10/05 09:24:29;;;;;;;10.43;3.03;;;;;;;25.84;55.35;97142.84;5107777;28;20064;-78
2023/10/05 09:26:57;;;;;;;7.72;3.83;;;;;;;25.81;54.00;97151.38;5107021;28;20438;-78
2023/10/05 09:29:31;;;;;;;6.25;2.80;;;;;;;26.07;54.24;97158.19;5086734;28;20027;-77
2023/10/05 09:32:00;;;;;;;7.45;3.13;;;;;;;25.91;54.22;97153.50;5089345;28;20362;-78
2023/10/05 09:34:35;;;;;;;7.35;3.10;;;;;;;26.54;53.17;97146.53;5100140;28;20626;-78
2023/10/05 09:37:06;;;;;;;10.93;3.38;;;;;;;27.28;49.17;97160.13;5098299;28;20354;-78
2023/10/05 09:39:44;;;;;;;10.80;3.40;;;;;;;27.42;47.57;97164.16;5079667;28;20034;-77
2023/10/05 09:42:22;;;;;;;7.60;3.28;;;;;;;26.76;48.71;97162.88;5085275;28;20030;-78
2023/10/05 09:44:59;;;;;;;9.27;3.42;;;;;;;26.63;51.61;97163.19;5090894;28;20027;-78
2023/10/05 09:47:33;;;;;;;8.45;2.88;;;;;;;26.33;50.54;97161.47;5103874;28;20031;-78
2023/10/05 09:50:22;;;;;;;9.23;3.50;;;;;;;26.61;52.47;97166.13;5091614;28;20034;-78
2023/10/05 09:52:46;;;;;;;9.60;4.05;;;;;;;26.80;48.45;97158.69;5107426;28;20027;-78
2023/10/05 09:55:21;;;;;;;8.82;3.65;;;;;;;25.88;51.14;97167.44;5091328;28;20024;-78
2023/10/05 09:57:51;;;;;;;7.35;3.17;;;;;;;27.10;49.83;97146.81;5105088;28;20028;-78
2023/10/05 10:03:01;;;;;;;7.50;3.42;;;;;;;26.07;53.47;97150.09;5104731;28;20042;-78
2023/10/05 10:05:35;;;;;;;9.00;3.83;;;;;;;25.32;53.81;97157.97;5090850;28;20602;-78
2023/10/05 10:08:23;;;;;;;6.95;3.15;;;;;;;27.34;47.20;97147.53;5084839;28;20110;-78
2023/10/05 10:11:06;;;;;;;11.15;3.88;;;;;;;26.41;51.94;97144.09;5096810;28;20019;-78
2023/10/05 10:13:38;;;;;;;;;;;;;;;26.38;49.90;97153.47;5087054;28;20035;-78
2023/10/05 10:16:16;;;;;;;9.18;3.78;;;;;;;25.68;50.01;97148.06;5091533;28;20566;-78
2023/10/05 10:18:45;;;;;;;10.10;3.53;;;;;;;25.74;51.83;97145.28;5087920;28;20024;-78
2023/10/05 10:21:25;;;;;;;9.57;4.10;;;;;;;26.62;47.90;97137.25;5100486;28;20027;-77
2023/10/05 10:24:01;;;;;;;11.20;3.85;;;;;;;24.67;52.03;97137.09;5091216;28;20031;-78
2023/10/05 10:26:27;;;;;;;11.20;4.10;;;;;;;24.47;55.15;97142.72;5101772;28;20091;-78
2023/10/05 10:29:05;;;;;;;9.43;3.75;;;;;;;24.91;53.70;97144.22;5091899;28;20040;-79
2023/10/05 10:31:30;;;;;;;15.00;6.30;;;;;;;25.16;53.84;97135.22;5102544;28;20116;-78
2023/10/05 10:34:10;;;;;;;10.38;4.25;;;;;;;26.34;50.52;97138.81;5110378;28;20035;-78
2023/10/05 10:36:46;;;;;;;9.95;4.15;;;;;;;26.56;49.23;97139.88;5102699;28;20502;-78
2023/10/05 10:39:27;;;;;;;11.60;5.05;;;;;;;25.50;49.57;97155.19;5095291;28;20382;-79
2023/10/05 10:42:00;;;;;;;11.77;4.20;;;;;;;26.41;46.80;97144.91;5094072;28;20032;-78
2023/10/05 10:44:26;;;;;;;12.30;4.53;;;;;;;25.98;49.18;97146.13;5103767;28;20114;-78
2023/10/05 10:47:08;;;;;;;9.13;3.92;;;;;;;25.28;50.18;97154.09;5101095;28;20530;-79
2023/10/05 10:49:39;;;;;;;9.20;4.97;;;;;;;26.02;47.85;97150.00;5099925;28;20072;-79
2023/10/05 10:52:11;;;;;;;10.60;4.68;;;;;;;26.08;48.57;97142.84;5107211;28;20032;-79
2023/10/05 10:54:45;;;;;;;13.00;4.70;;;;;;;25.73;49.40;97148.22;5095002;28;20031;-78
2023/10/05 10:57:20;;;;;;;11.20;4.75;;;;;;;25.99;49.96;97144.25;5110642;28;20166;-79
2023/10/05 10:59:46;;;;;;;12.15;4.15;;;;;;;26.09;48.40;97139.09;5093519;28;20118;-78
2023/10/05 11:02:23;;;;;;;11.02;4.95;;;;;;;25.75;48.02;97136.13;5111626;28;20038;-78
2023/10/05 11:04:49;;;;;;;9.82;4.35;;;;;;;26.38;46.33;97131.06;5111437;28;20557;-79
2023/10/05 11:07:16;;;;;;;12.32;4.72;;;;;;;26.01;46.92;97137.56;5094733;28;20016;-79
2023/10/05 11:09:52;;;;;;;12.13;4.70;;;;;;;25.03;49.42;97140.78;5102800;28;20020;-79
2023/10/05 11:12:22;;;;;;;10.00;4.20;;;;;;;25.81;47.76;97145.19;5091983;28;20497;-78
2023/10/05 11:14:59;;;;;;;11.70;4.20;;;;;;;25.48;47.07;97141.13;5097063;28;20106;-78
2023/10/05 11:17:30;;;;;;;9.90;4.40;;;;;;;25.71;46.83;97134.97;5090212;28;20624;-78
2023/10/05 11:20:15;;;;;;;11.95;5.00;;;;;;;26.71;44.44;97138.53;5094257;28;20150;-78
2023/10/05 11:22:43;;;;;;;11.77;4.55;;;;;;;26.31;44.84;97142.00;5091505;28;20042;-78
2023/10/05 11:25:15;;;;;;;11.55;4.72;;;;;;;25.90;45.91;97140.28;5094906;28;20546;-78
2023/10/05 11:27:44;;;;;;;14.98;5.00;;;;;;;25.99;45.50;97137.00;5104064;28;20117;-78
2023/10/05 11:30:18;;;;;;;12.27;4.70;;;;;;;26.63;44.58;97125.41;5101049;28;20039;-78
2023/10/05 11:32:45;;;;;;;12.77;5.13;;;;;;;26.66;44.03;97125.75;5095572;28;20024;-78
2023/10/05 11:35:15;;;;;;;12.25;4.72;;;;;;;26.96;43.97;97121.97;5088043;28;20111;-78
2023/10/05 11:37:58;;;;;;;11.20;4.43;;;;;;;25.71;45.22;97131.44;5082898;28;20023;-78
2023/10/05 11:40:31;;;;;;;10.60;4.45;;;;;;;25.61;46.41;97124.75;5111640;28;20110;-78
2023/10/05 11:42:58;;;;;;;11.93;4.07;;;;;;;26.62;43.25;97124.56;5089957;28;20027;-79
2023/10/05 11:45:23;;;;;;;12.00;4.53;;;;;;;26.94;42.62;97126.81;5089548;28;20115;-78
2023/10/05 11:47:53;;;;;;;12.70;4.65;;;;;;;26.46;43.99;97126.13;5087710;28;20575;-79
2023/10/05 11:50:25;;;;;;;10.18;4.47;;;;;;;27.06;42.66;97126.75;5110971;28;20015;-78
2023/10/05 11:52:53;;;;;;;11.85;4.95;;;;;;;27.08;43.29;97127.34;5109077;28;20032;-78
2023/10/05 11:55:20;;;;;;;11.13;4.55;;;;;;;26.51;43.99;97126.25;5110420;28;20568;-79
2023/10/05 11:57:45;;;;;;;10.23;4.35;;;;;;;27.41;42.64;97115.78;5090664;28;20061;-78
2023/10/05 12:00:16;;;;;;;11.20;4.65;;;;;;;26.85;42.80;97107.47;5093945;28;20015;-78
2023/10/05 12:02:43;;;;;;;11.10;4.47;;;;;;;26.13;43.50;97116.00;5088830;28;20059;-79